首页
METAR-TAF:

METAR-TAF

机场 :

新拉雷多, 墨西哥

纬度: 27-26N, 经度: 099-34W, 海拔: 148米

当前天气观测

该预报发布于30分钟前的21:40 UTC
风速10节,风向东北
温度 39°C
湿度 40%
气压 1005 hPa
能見度: 9.7公里
散云层高于3000英尺

METAR: MMNL 262140Z 04010KT 6SM SCT030 39/23 A2967 RMK 8/100 HZY ISOL AS CI

时间: 17:10 (22:10 UTC)

预报

该预报发布于4小时和15分钟前的17:55 UTC
预报有效从26日的 18点(UTC)到 27日的 18点(UTC)
风速节,风向
能見度: 10公里
散云层高于2000英尺
散云层高于22000英尺
从 26日的 2100点(UTC)
风速15节,风向东转东南
能見度: 10公里
散云层高于2000英尺
散云层高于22000英尺
短暂存在
从 26日的 23点(UTC)到 27日的 03点(UTC)
能見度: 9.7公里
多云层高于2000英尺, 积雨云.
雷暴, 小雨
从 27日的 0300点(UTC)
风速10节,风向北转西北
散云层高于2000英尺
散云层高于10000英尺
从 27日的 1200点(UTC)
风速10节,风向南转南东
能見度: 6.4公里
散云层高于1500英尺
霾,

TAF: MMNL 261755Z 2618/2718 00000KT P6SM SCT020 SCT220 FM262100 12015KT P6SM SCT020 SCT220 TEMPO 2623/2703 6SM -TSRA BKN020CB FM270300 34010KT P5SM SCT020 SCT100 FM271200 15010KT 4SM HZ SCT015

超过4000个机场的气象观测和天气预报(METAR&TAF报告)。

可查询的气象台以黄色和红色小点在地图上表示。

将鼠标移到小点上方,可查看气象台名称。

然后点击查看天气观测和预报。

如需切换地图:点击带黑十字的绿色按钮放大地图;点击带横线的绿色按钮缩小地图;或者点击绿色箭头查看邻近地区的地图。


METAR-TAF: